createdAt,value
2017-04-07T00:00:04.932Z,1022.2
2017-04-07T00:01:08.085Z,1022.2
2017-04-07T00:02:10.430Z,1022.2
2017-04-07T00:03:13.275Z,1022.2
2017-04-07T00:04:15.629Z,1022.3
2017-04-07T00:05:18.530Z,1022.2
2017-04-07T00:06:21.138Z,1022.2
2017-04-07T00:07:23.490Z,1022.2
2017-04-07T00:08:26.209Z,1022.2
2017-04-07T00:09:29.058Z,1022.2
2017-04-07T00:10:31.400Z,1022.3
2017-04-07T00:11:34.506Z,1022
2017-04-07T00:12:36.854Z,1022
2017-04-07T00:13:39.702Z,1022
2017-04-07T00:15:45.036Z,1022
2017-04-07T00:16:47.688Z,1022.2
2017-04-07T00:17:50.036Z,1022.2
2017-04-07T00:18:52.884Z,1022.3
2017-04-07T00:19:55.237Z,1021.9
2017-04-07T00:20:58.088Z,1022.2
2017-04-07T00:22:01.189Z,1022.2
2017-04-07T00:24:06.025Z,1022.3
2017-04-07T00:25:08.879Z,1022.3
2017-04-07T00:26:11.228Z,1022.2
2017-04-07T00:27:14.383Z,1022.2
2017-04-07T00:28:16.783Z,1022.2
2017-04-07T00:29:19.330Z,1022.2
2017-04-07T00:30:22.176Z,1022.2
2017-04-07T00:31:24.756Z,1022.3
2017-04-07T00:33:30.301Z,1022.2
2017-04-07T00:34:32.651Z,1022
2017-04-07T00:35:34.995Z,1022.2
2017-04-07T00:36:37.711Z,1022.2
2017-04-07T00:37:40.564Z,1022.2
2017-04-07T00:38:43.163Z,1022.2
2017-04-07T00:39:45.509Z,1022.2
2017-04-07T00:40:48.358Z,1022
2017-04-07T00:41:51.238Z,1022
2017-04-07T00:42:53.582Z,1022
2017-04-07T00:43:56.686Z,1022
2017-04-07T00:44:59.092Z,1022
2017-04-07T00:46:01.509Z,1021.9
2017-04-07T00:47:04.361Z,1022
2017-04-07T00:48:06.708Z,1021.8
2017-04-07T00:50:12.531Z,1021.9
2017-04-07T00:52:17.279Z,1021.9
2017-04-07T00:53:20.136Z,1021.8
2017-04-07T00:54:22.990Z,1021.8
2017-04-07T00:55:25.634Z,1021.7
2017-04-07T00:56:27.978Z,1021.8
2017-04-07T00:57:30.826Z,1021.7
2017-04-07T00:58:33.176Z,1021.8
2017-04-07T00:59:36.027Z,1021.8
2017-04-07T01:00:38.730Z,1021.7
2017-04-07T01:01:41.441Z,1021.7
2017-04-07T01:02:43.785Z,1021.7
2017-04-07T01:03:46.634Z,1021.7
2017-04-07T01:04:49.043Z,1021.7
2017-04-07T01:05:52.021Z,1021.7
2017-04-07T01:06:54.371Z,1021.7
2017-04-07T01:07:57.224Z,1021.7
2017-04-07T01:08:59.575Z,1021.7
2017-04-07T01:10:02.423Z,1021.7
2017-04-07T01:12:07.991Z,1021.7
2017-04-07T01:13:10.207Z,1021.8
2017-04-07T01:16:18.384Z,1021.8
2017-04-07T01:17:20.984Z,1021.8
2017-04-07T01:18:23.331Z,1021.8
2017-04-07T01:19:26.178Z,1021.7
2017-04-07T01:20:29.027Z,1021.8
2017-04-07T01:21:31.374Z,1021.7
2017-04-07T01:22:34.525Z,1021.7
2017-04-07T01:23:36.877Z,1021.7
2017-04-07T01:24:39.221Z,1021.7
2017-04-07T01:25:42.175Z,1021.7
2017-04-07T01:26:44.521Z,1021.6
2017-04-07T01:27:47.540Z,1021.6
2017-04-07T01:28:49.887Z,1021.6
2017-04-07T01:29:52.603Z,1021.7
2017-04-07T01:30:55.457Z,1021.7
2017-04-07T01:31:57.802Z,1021.6
2017-04-07T01:33:00.906Z,1021.6
2017-04-07T01:34:03.249Z,1021.6
2017-04-07T01:35:05.602Z,1021.6
2017-04-07T01:36:08.454Z,1021.5
2017-04-07T01:57:10.976Z,1021.6
2017-04-07T01:58:03.751Z,1021.6
2017-04-07T01:59:06.592Z,1021.6
2017-04-07T02:00:08.929Z,1021.5
2017-04-07T02:01:11.639Z,1021.5
2017-04-07T02:02:14.732Z,1021.4
2017-04-07T02:03:17.067Z,1021.5
2017-04-07T02:04:19.910Z,1021.5
2017-04-07T02:05:22.252Z,1021.5
2017-04-07T02:06:25.095Z,1021.4
2017-04-07T02:07:27.733Z,1021.4
2017-04-07T02:08:30.065Z,1021.4
2017-04-07T02:09:32.974Z,1021.4
2017-04-07T02:10:35.324Z,1021.4
2017-04-07T02:11:38.182Z,1021.5
2017-04-07T02:12:41.325Z,1021.4
2017-04-07T02:18:56.481Z,1021.4
2017-04-07T02:19:59.326Z,1021.4
2017-04-07T02:21:01.667Z,1021.4
2017-04-07T02:22:04.514Z,1021.4
2017-04-07T02:23:07.363Z,1021.4
2017-04-07T02:25:12.929Z,1021.3
2017-04-07T02:26:15.271Z,1021.3
2017-04-07T02:27:17.480Z,1021.4
2017-04-07T02:28:20.356Z,1021.3
2017-04-07T02:29:23.205Z,1021.3
2017-04-07T02:30:25.719Z,1021.3
2017-04-07T02:31:28.066Z,1021.4
2017-04-07T02:32:30.914Z,1021.4
2017-04-07T02:33:33.761Z,1021.3
2017-04-07T02:34:36.108Z,1021.3
2017-04-07T02:35:39.129Z,1021.4
2017-04-07T02:36:41.472Z,1021.4
2017-04-07T02:37:43.816Z,1021.4
2017-04-07T02:38:46.667Z,1021.3
2017-04-07T02:39:49.511Z,1021.3
2017-04-07T02:40:52.022Z,1021.3
2017-04-07T02:43:59.685Z,1021.3
2017-04-07T02:45:02.538Z,1021.2
2017-04-07T02:46:05.688Z,1021.3
2017-04-07T02:47:07.897Z,1021.2
2017-04-07T02:48:10.240Z,1021.1
2017-04-07T02:49:12.979Z,1021.2
2017-04-07T02:50:15.822Z,1021.2
2017-04-07T02:51:18.798Z,1021.2
2017-04-07T02:52:21.144Z,1021.1
2017-04-07T02:53:23.357Z,1021.2
2017-04-07T02:54:26.067Z,1021.2
2017-04-07T02:55:28.909Z,1021.1
2017-04-07T02:56:32.060Z,1021.1
2017-04-07T02:57:33.901Z,1021.2
2017-04-07T02:58:36.745Z,1021.1
2017-04-07T02:59:39.456Z,1021.2
2017-04-07T03:00:41.805Z,1021.2
2017-04-07T03:01:44.920Z,1021.2
2017-04-07T03:03:50.179Z,1021.1
2017-04-07T03:04:52.523Z,1021.1
2017-04-07T03:05:55.371Z,1021.1
2017-04-07T03:06:58.020Z,1021.2
2017-04-07T03:08:00.659Z,1021.1
2017-04-07T03:09:03.373Z,1021
2017-04-07T03:10:05.715Z,1021.1
2017-04-07T03:11:08.292Z,1021.1
2017-04-07T03:12:11.391Z,1021.1
2017-04-07T03:13:13.734Z,1021
2017-04-07T03:14:16.074Z,1021.2
2017-04-07T03:15:18.785Z,1021.1
2017-04-07T03:16:21.632Z,1021.1
2017-04-07T03:17:24.595Z,1021.1
2017-04-07T03:18:26.947Z,1021.1
2017-04-07T03:19:29.291Z,1021.1
2017-04-07T03:20:32.135Z,1021
2017-04-07T03:21:34.540Z,1021
2017-04-07T03:22:37.685Z,1021
2017-04-07T03:23:40.030Z,1021
2017-04-07T03:24:42.434Z,1020.9
2017-04-07T03:25:45.150Z,1020.9
2017-04-07T03:26:47.997Z,1020.9
2017-04-07T03:27:50.593Z,1021
2017-04-07T03:28:53.439Z,1021
2017-04-07T03:29:55.779Z,1020.9
2017-04-07T03:30:58.780Z,1020.9
2017-04-07T03:32:01.124Z,1020.9
2017-04-07T03:33:04.271Z,1021
2017-04-07T03:34:06.614Z,1020.9
2017-04-07T03:35:09.020Z,1020.9
2017-04-07T03:36:11.881Z,1021
2017-04-07T03:37:14.247Z,1020.9
2017-04-07T03:38:17.398Z,1021
2017-04-07T03:39:19.745Z,1021
2017-04-07T03:40:22.082Z,1021
2017-04-07T03:41:24.789Z,1020.9
2017-04-07T03:42:27.632Z,1020.9
2017-04-07T03:43:30.202Z,1020.9
2017-04-07T03:44:32.914Z,1020.9
2017-04-07T03:45:35.254Z,1020.9
2017-04-07T03:46:38.100Z,1020.9
2017-04-07T03:47:40.818Z,1020.8
2017-04-07T03:48:43.458Z,1020.9
2017-04-07T03:49:45.799Z,1020.9
2017-04-07T03:50:48.647Z,1020.8
2017-04-07T03:51:50.986Z,1020.9
2017-04-07T03:52:53.837Z,1020.8
2017-04-07T03:53:56.482Z,1020.9
2017-04-07T03:54:58.825Z,1020.8
2017-04-07T03:56:01.673Z,1020.9
2017-04-07T03:57:04.522Z,1020.9
2017-04-07T03:58:06.732Z,1021
2017-04-07T03:59:09.829Z,1020.9
2017-04-07T04:00:12.170Z,1021
2017-04-07T04:01:15.019Z,1020.9
2017-04-07T04:02:17.274Z,1021
2017-04-07T04:03:20.122Z,1021
2017-04-07T04:04:23.271Z,1020.9
2017-04-07T04:05:25.481Z,1020.9
2017-04-07T04:06:27.828Z,1021
2017-04-07T04:08:33.078Z,1020.9
2017-04-07T04:09:36.224Z,1021
2017-04-07T04:10:38.568Z,1021
2017-04-07T04:11:40.977Z,1021
2017-04-07T04:12:43.820Z,1021
2017-04-07T04:13:46.660Z,1020.9
2017-04-07T04:14:49.307Z,1021
2017-04-07T04:15:51.647Z,1021
2017-04-07T04:16:54.491Z,1020.9
2017-04-07T04:17:56.836Z,1020.9
2017-04-07T04:18:59.679Z,1020.9
2017-04-07T04:20:02.350Z,1020.9
2017-04-07T04:21:04.694Z,1021
2017-04-07T04:22:07.545Z,1020.9
2017-04-07T04:23:10.396Z,1020.9
2017-04-07T04:25:15.947Z,1020.9
2017-04-07T04:26:18.172Z,1020.9
2017-04-07T04:27:20.518Z,1020.8
2017-04-07T04:28:23.229Z,1020.9
2017-04-07T04:29:26.079Z,1020.8
2017-04-07T04:30:28.728Z,1020.7
2017-04-07T04:32:33.847Z,1020.8
2017-04-07T04:33:36.689Z,1020.9
2017-04-07T04:34:39.265Z,1020.8
2017-04-07T04:35:41.914Z,1020.8
2017-04-07T04:36:44.254Z,1020.8
2017-04-07T04:37:47.098Z,1020.8
2017-04-07T04:38:49.443Z,1020.8
2017-04-07T04:39:52.181Z,1020.8
2017-04-07T04:40:55.281Z,1020.7
2017-04-07T04:41:57.627Z,1020.8
2017-04-07T04:43:00.338Z,1020.8
2017-04-07T04:44:03.049Z,1020.8
2017-04-07T04:45:05.263Z,1020.8
2017-04-07T04:46:08.360Z,1020.7
2017-04-07T04:47:10.697Z,1020.7
2017-04-07T04:48:13.542Z,1020.7
2017-04-07T04:49:15.886Z,1020.7
2017-04-07T04:50:18.733Z,1020.6
2017-04-07T04:51:21.426Z,1020.7
2017-04-07T04:52:23.771Z,1020.7
2017-04-07T04:53:26.674Z,1020.6
2017-04-07T04:54:29.016Z,1020.7
2017-04-07T04:56:34.671Z,1020.6
2017-04-07T04:57:37.018Z,1020.7
2017-04-07T04:58:39.891Z,1020.6
2017-04-07T04:59:42.306Z,1020.6
2017-04-07T05:01:47.863Z,1020.7
2017-04-07T05:02:50.208Z,1020.6
2017-04-07T05:03:53.052Z,1020.6
2017-04-07T05:04:55.397Z,1020.6
2017-04-07T05:05:58.246Z,1020.6
2017-04-07T05:07:00.894Z,1020.6
2017-04-07T05:08:03.252Z,1020.6
2017-04-07T05:10:08.381Z,1020.5
2017-04-07T05:11:11.284Z,1020.5
2017-04-07T05:12:13.936Z,1020.5
2017-04-07T05:13:16.275Z,1020.4
2017-04-07T05:14:19.147Z,1020.5
2017-04-07T05:16:24.398Z,1020.4
2017-04-07T05:17:27.105Z,1020.4
2017-04-07T05:18:29.448Z,1020.4
2017-04-07T05:19:32.296Z,1020.5
2017-04-07T05:20:35.141Z,1020.5
2017-04-07T05:21:37.480Z,1020.5
2017-04-07T05:22:40.579Z,1020.4
2017-04-07T05:23:42.916Z,1020.5
2017-04-07T05:24:45.257Z,1020.5
2017-04-07T05:25:48.097Z,1020.5
2017-04-07T05:26:50.949Z,1020.4
2017-04-07T05:27:53.597Z,1020.6
2017-04-07T05:28:55.938Z,1020.6
2017-04-07T05:29:58.782Z,1020.5
2017-04-07T05:31:01.135Z,1020.5
2017-04-07T05:32:03.981Z,1020.5
2017-04-07T05:33:06.629Z,1020.5
2017-04-07T05:34:08.972Z,1020.5
2017-04-07T05:35:11.821Z,1020.4
2017-04-07T05:36:14.159Z,1020.4
2017-04-07T05:37:17.007Z,1020.4
2017-04-07T05:38:20.102Z,1020.4
2017-04-07T05:39:22.441Z,1020.4
2017-04-07T05:40:24.783Z,1020.5
2017-04-07T05:41:27.686Z,1020.5
2017-04-07T05:42:30.026Z,1020.4
2017-04-07T05:43:33.171Z,1020.5
2017-04-07T05:44:35.380Z,1020.6
2017-04-07T05:45:38.223Z,1020.5
2017-04-07T05:46:40.567Z,1020.6
2017-04-07T05:47:43.471Z,1020.6
2017-04-07T05:48:46.065Z,1020.6
2017-04-07T05:49:48.467Z,1020.6
2017-04-07T05:50:51.318Z,1020.6
2017-04-07T05:51:53.655Z,1020.6
2017-04-07T05:52:56.498Z,1020.6
2017-04-07T05:53:59.102Z,1020.7
2017-04-07T05:55:01.956Z,1020.7
2017-04-07T05:56:04.301Z,1020.8
2017-04-07T05:57:07.146Z,1020.6
2017-04-07T05:58:09.491Z,1020.6
2017-04-07T05:59:12.591Z,1020.7
2017-04-07T06:00:14.937Z,1020.7
2017-04-07T06:01:17.280Z,1020.7
2017-04-07T06:02:20.131Z,1020.6
2017-04-07T06:03:22.979Z,1020.7
2017-04-07T06:04:25.625Z,1020.7
2017-04-07T06:05:27.969Z,1020.7
2017-04-07T06:06:30.917Z,1020.6
2017-04-07T06:07:33.480Z,1020.7
2017-04-07T06:08:35.881Z,1020.6
2017-04-07T06:09:38.978Z,1020.6
2017-04-07T06:10:41.324Z,1020.7
2017-04-07T06:11:43.663Z,1020.7
2017-04-07T06:12:46.370Z,1020.7
2017-04-07T06:13:49.225Z,1020.7
2017-04-07T06:14:52.120Z,1020.5
2017-04-07T06:15:54.522Z,1020.5
2017-04-07T06:16:56.867Z,1020.5
2017-04-07T06:17:59.577Z,1020.5
2017-04-07T06:19:02.420Z,1020.6
2017-04-07T06:21:07.659Z,1020.6
2017-04-07T06:22:10.008Z,1020.6
2017-04-07T06:23:12.858Z,1020.5
2017-04-07T06:24:15.200Z,1020.6
2017-04-07T06:25:18.047Z,1020.6
2017-04-07T06:26:21.147Z,1020.6
2017-04-07T06:27:23.493Z,1020.6
2017-04-07T06:28:25.704Z,1020.4
2017-04-07T06:29:28.548Z,1020.5
2017-04-07T06:30:31.396Z,1020.6
2017-04-07T06:31:34.039Z,1020.6
2017-04-07T06:32:36.382Z,1020.6
2017-04-07T06:33:39.088Z,1020.6
2017-04-07T06:34:41.852Z,1020.6
2017-04-07T06:35:44.564Z,1020.6
2017-04-07T06:36:47.218Z,1020.5
2017-04-07T06:37:49.421Z,1020.6
2017-04-07T06:38:52.132Z,1020.6
2017-04-07T06:39:54.972Z,1020.6
2017-04-07T06:40:57.313Z,1020.6
2017-04-07T06:42:00.462Z,1020.7
2017-04-07T06:43:02.806Z,1020.7
2017-04-07T06:44:05.160Z,1020.6
2017-04-07T06:45:08.078Z,1020.6
2017-04-07T06:46:10.419Z,1020.7
2017-04-07T06:47:13.567Z,1020.7
2017-04-07T06:48:15.919Z,1020.6
2017-04-07T06:49:18.762Z,1020.7
2017-04-07T06:50:21.102Z,1020.6
2017-04-07T06:51:23.951Z,1020.7
2017-04-07T06:52:26.597Z,1020.7
2017-04-07T06:53:28.936Z,1020.7
2017-04-07T06:54:31.648Z,1020.8
2017-04-07T06:55:34.360Z,1020.8
2017-04-07T06:56:37.206Z,1020.8
2017-04-07T06:57:39.795Z,1020.8
2017-04-07T06:58:42.213Z,1020.8
2017-04-07T06:59:45.061Z,1020.7
2017-04-07T07:00:47.272Z,1020.8
2017-04-07T07:01:50.125Z,1020.8
2017-04-07T07:02:53.194Z,1020.7
2017-04-07T07:03:55.534Z,1020.7
2017-04-07T07:04:57.883Z,1020.8
2017-04-07T07:06:00.650Z,1020.8
2017-04-07T07:07:03.498Z,1020.9
2017-04-07T07:08:06.154Z,1020.9
2017-04-07T07:09:08.532Z,1020.9
2017-04-07T07:10:11.112Z,1020.9
2017-04-07T07:11:13.960Z,1020.9
2017-04-07T07:12:16.303Z,1020.9
2017-04-07T07:13:19.452Z,1021
2017-04-07T07:14:21.793Z,1021
2017-04-07T07:15:24.134Z,1021
2017-04-07T07:16:26.989Z,1021
2017-04-07T07:17:29.700Z,1021
2017-04-07T07:18:32.301Z,1021
2017-04-07T07:19:34.639Z,1021.1
2017-04-07T07:20:37.483Z,1021.1
2017-04-07T07:21:40.333Z,1021.1
2017-04-07T07:22:42.542Z,1021.1
2017-04-07T07:23:45.710Z,1021
2017-04-07T07:24:48.061Z,1021.1
2017-04-07T07:25:50.404Z,1021
2017-04-07T07:26:53.252Z,1021.1
2017-04-07T07:27:56.100Z,1021.1
2017-04-07T07:28:58.743Z,1021.1
2017-04-07T07:30:01.087Z,1021.1
2017-04-07T07:31:03.804Z,1021.1
2017-04-07T07:32:06.150Z,1021.2
2017-04-07T07:33:08.813Z,1021.2
2017-04-07T07:34:11.908Z,1021.1
2017-04-07T07:35:14.251Z,1021.1
2017-04-07T07:36:17.099Z,1021.1
2017-04-07T07:37:19.439Z,1021.1
2017-04-07T07:38:22.282Z,1021.1
2017-04-07T07:39:25.301Z,1021
2017-04-07T07:40:27.647Z,1021
2017-04-07T07:41:29.988Z,1021.1
2017-04-07T07:42:32.567Z,1021
2017-04-07T07:43:35.418Z,1021
2017-04-07T07:44:38.015Z,1020.9
2017-04-07T07:45:40.728Z,1021
2017-04-07T07:46:43.076Z,1021
2017-04-07T07:47:45.929Z,1021
2017-04-07T07:48:48.273Z,1021
2017-04-07T07:49:51.369Z,1021
2017-04-07T07:50:53.709Z,1021
2017-04-07T07:51:56.107Z,1021.1
2017-04-07T07:52:58.857Z,1021
2017-04-07T07:54:01.761Z,1021
2017-04-07T07:55:04.358Z,1021
2017-04-07T07:56:06.728Z,1021.1
2017-04-07T07:57:09.580Z,1021
2017-04-07T07:58:11.920Z,1021
2017-04-07T07:59:14.764Z,1021
2017-04-07T08:00:17.727Z,1021
2017-04-07T08:01:20.070Z,1021
2017-04-07T08:02:22.414Z,1021
2017-04-07T08:03:25.262Z,1021
2017-04-07T08:04:28.016Z,1020.9
2017-04-07T08:05:30.614Z,1021
2017-04-07T08:06:32.825Z,1020.9
2017-04-07T08:07:35.679Z,1020.9
2017-04-07T08:09:40.930Z,1020.9
2017-04-07T08:11:46.448Z,1020.9
2017-04-07T08:12:48.789Z,1020.9
2017-04-07T08:13:51.631Z,1020.9
2017-04-07T08:14:53.974Z,1021
2017-04-07T08:15:56.824Z,1021
2017-04-07T08:16:59.422Z,1021
2017-04-07T08:18:01.764Z,1021
2017-04-07T08:19:04.618Z,1021
2017-04-07T08:20:06.968Z,1021
2017-04-07T08:21:09.810Z,1021
2017-04-07T08:22:12.956Z,1020.9
2017-04-07T08:23:15.034Z,1021
2017-04-07T08:24:17.890Z,1021
2017-04-07T08:25:20.300Z,1021
2017-04-07T08:26:23.144Z,1021
2017-04-07T08:27:25.793Z,1021.1
2017-04-07T08:28:28.143Z,1021
2017-04-07T08:29:30.861Z,1021
2017-04-07T08:30:33.574Z,1021
2017-04-07T08:31:35.915Z,1021
2017-04-07T08:32:38.938Z,1021
2017-04-07T08:33:41.297Z,1021
2017-04-07T08:34:44.141Z,1021
2017-04-07T08:35:46.351Z,1021
2017-04-07T08:36:49.057Z,1021
2017-04-07T08:37:52.070Z,1021
2017-04-07T08:38:54.410Z,1021
2017-04-07T08:39:57.253Z,1021
2017-04-07T08:40:59.456Z,1021
2017-04-07T08:42:02.300Z,1021
2017-04-07T08:43:05.449Z,1021
2017-04-07T08:44:07.295Z,1021
2017-04-07T08:45:10.141Z,1021
2017-04-07T08:46:12.987Z,1021.1
2017-04-07T08:47:15.567Z,1021.1
2017-04-07T08:48:18.212Z,1021.1
2017-04-07T08:49:20.559Z,1021.1
2017-04-07T08:50:23.466Z,1021.1
2017-04-07T08:51:25.673Z,1021.1
2017-04-07T08:52:28.517Z,1021.2
2017-04-07T08:53:31.614Z,1021.1
2017-04-07T08:54:33.960Z,1021.1
2017-04-07T08:55:36.302Z,1021.1
2017-04-07T08:56:39.052Z,1021.1
2017-04-07T08:57:41.451Z,1021.1
2017-04-07T08:58:44.597Z,1021
2017-04-07T08:59:46.942Z,1021.1
2017-04-07T09:00:49.284Z,1021.1
2017-04-07T09:01:52.128Z,1021
2017-04-07T09:02:54.970Z,1021
2017-04-07T09:03:57.565Z,1021
2017-04-07T09:04:59.969Z,1021
2017-04-07T09:06:02.818Z,1021
2017-04-07T09:07:05.166Z,1021
2017-04-07T09:08:07.940Z,1021
2017-04-07T09:09:10.533Z,1021
2017-04-07T09:10:13.385Z,1021
2017-04-07T09:11:15.729Z,1021
2017-04-07T09:12:18.576Z,1021
2017-04-07T09:13:20.919Z,1021
2017-04-07T09:14:24.014Z,1021
2017-04-07T09:15:26.224Z,1021
2017-04-07T09:16:29.127Z,1021
2017-04-07T09:17:31.337Z,1021
2017-04-07T09:18:34.188Z,1021
2017-04-07T09:19:37.333Z,1021
2017-04-07T09:20:39.178Z,1021
2017-04-07T09:21:42.021Z,1021
2017-04-07T09:22:44.868Z,1021
2017-04-07T09:23:47.267Z,1021
2017-04-07T09:24:50.367Z,1020.9
2017-04-07T09:25:52.711Z,1021
2017-04-07T09:26:55.109Z,1020.9
2017-04-07T09:27:57.955Z,1020.9
2017-04-07T09:29:00.302Z,1020.9
2017-04-07T09:30:03.396Z,1020.9
2017-04-07T09:31:05.742Z,1020.9
2017-04-07T09:33:11.001Z,1020.9
2017-04-07T09:34:13.350Z,1020.9
2017-04-07T09:35:16.319Z,1020.9
2017-04-07T09:36:19.027Z,1020.9
2017-04-07T09:37:21.239Z,1020.9
2017-04-07T09:38:24.080Z,1020.8
2017-04-07T09:39:26.926Z,1020.8
2017-04-07T09:40:29.519Z,1020.8
2017-04-07T09:41:31.856Z,1020.8
2017-04-07T09:42:34.698Z,1020.8
2017-04-07T09:43:37.038Z,1020.8
2017-04-07T09:44:39.750Z,1020.8
2017-04-07T09:45:42.818Z,1020.8
2017-04-07T09:46:45.155Z,1020.8
2017-04-07T09:47:47.729Z,1020.8
2017-04-07T09:48:50.573Z,1020.8
2017-04-07T09:49:52.916Z,1020.8
2017-04-07T09:50:56.066Z,1020.9
2017-04-07T09:51:58.411Z,1020.9
2017-04-07T09:53:00.757Z,1020.9
2017-04-07T09:54:03.608Z,1020.9
2017-04-07T09:55:05.952Z,1020.9
2017-04-07T09:56:09.161Z,1020.9
2017-04-07T09:57:11.371Z,1020.9
2017-04-07T09:58:14.081Z,1020.9
2017-04-07T09:59:16.921Z,1020.9
2017-04-07T10:00:19.316Z,1020.9
2017-04-07T10:01:22.332Z,1020.9
2017-04-07T10:02:24.540Z,1021
2017-04-07T10:03:27.011Z,1020.9
2017-04-07T10:04:29.859Z,1020.9
2017-04-07T10:05:32.703Z,1020.9
2017-04-07T10:06:35.297Z,1020.9
2017-04-07T10:07:37.637Z,1020.9
2017-04-07T10:08:40.215Z,1020.9
2017-04-07T10:09:42.925Z,1020.9
2017-04-07T10:11:48.479Z,1020.9
2017-04-07T10:12:50.823Z,1020.9
2017-04-07T10:13:53.669Z,1020.8
2017-04-07T10:14:56.013Z,1020.8
2017-04-07T10:15:58.861Z,1020.8
2017-04-07T10:17:02.012Z,1020.8
2017-04-07T10:19:06.766Z,1020.7
2017-04-07T10:21:12.022Z,1020.6
2017-04-07T10:22:15.203Z,1020.6
2017-04-07T10:23:17.100Z,1020.6
2017-04-07T10:24:19.948Z,1020.6
2017-04-07T10:25:22.790Z,1020.6
2017-04-07T10:26:25.138Z,1020.5
2017-04-07T10:27:28.250Z,1020.6
2017-04-07T10:28:30.591Z,1020.6
2017-04-07T10:29:32.940Z,1020.6
2017-04-07T10:30:35.790Z,1020.5
2017-04-07T10:31:38.639Z,1020.5
2017-04-07T10:32:41.235Z,1020.5
2017-04-07T10:34:46.489Z,1020.5
2017-04-07T10:35:48.834Z,1020.5
2017-04-07T10:36:51.676Z,1020.5
2017-04-07T10:37:54.268Z,1020.5
2017-04-07T10:38:57.109Z,1020.5
2017-04-07T10:39:59.326Z,1020.5
2017-04-07T10:41:02.177Z,1020.5
2017-04-07T10:42:05.023Z,1020.5
2017-04-07T10:43:07.618Z,1020.4
2017-04-07T10:44:09.958Z,1020.3
2017-04-07T10:45:12.805Z,1020.3
2017-04-07T10:46:15.149Z,1020.4
2017-04-07T10:47:17.991Z,1020.3
2017-04-07T10:48:21.155Z,1020.3
2017-04-07T10:49:23.361Z,1020.3
2017-04-07T10:50:25.763Z,1020.2
2017-04-07T10:51:28.609Z,1020.3
2017-04-07T10:52:31.453Z,1020.3
2017-04-07T10:53:34.102Z,1020.3
2017-04-07T10:54:36.443Z,1020.3
2017-04-07T10:55:39.167Z,1020.3
2017-04-07T10:56:42.016Z,1020.3
2017-04-07T10:57:44.225Z,1020.3
2017-04-07T10:58:47.323Z,1020.3
2017-04-07T10:59:49.665Z,1020.3
2017-04-07T11:00:52.513Z,1020.2
2017-04-07T11:01:54.853Z,1020.2
2017-04-07T11:02:57.700Z,1020.2
2017-04-07T11:04:00.342Z,1020.2
2017-04-07T11:05:02.685Z,1020.2
2017-04-07T11:06:05.397Z,1020.1
2017-04-07T11:07:08.248Z,1020.2
2017-04-07T11:08:10.592Z,1020.1
2017-04-07T11:09:13.686Z,1020.1
2017-04-07T11:10:16.034Z,1020.2
2017-04-07T11:11:18.750Z,1020.2
2017-04-07T11:13:24.008Z,1020.2
2017-04-07T11:14:27.212Z,1020.2
2017-04-07T11:15:29.118Z,1020.1
2017-04-07T11:16:31.960Z,1020.2
2017-04-07T11:17:34.819Z,1020.2
2017-04-07T11:18:37.156Z,1020.2
2017-04-07T11:20:42.703Z,1020.2
2017-04-07T11:21:45.048Z,1020.2
2017-04-07T11:22:47.895Z,1020.2
2017-04-07T11:23:50.250Z,1020.2
2017-04-07T11:24:53.095Z,1020.2
2017-04-07T11:25:56.193Z,1020.2
2017-04-07T11:26:58.535Z,1020.2
2017-04-07T11:28:00.881Z,1020.2
2017-04-07T11:29:03.732Z,1020.2
2017-04-07T11:30:06.204Z,1020.2
2017-04-07T11:31:09.304Z,1020.2
2017-04-07T11:32:11.651Z,1020.3
2017-04-07T11:33:14.055Z,1020.1
2017-04-07T11:34:16.768Z,1020.1
2017-04-07T11:35:19.342Z,1020.2
2017-04-07T11:36:22.492Z,1020.2
2017-04-07T11:37:24.836Z,1020.1
2017-04-07T11:38:27.216Z,1020.1
2017-04-07T11:39:30.060Z,1020
2017-04-07T11:40:32.913Z,1020.1
2017-04-07T11:41:35.558Z,1020.1
2017-04-07T11:42:37.902Z,1020.1
2017-04-07T11:43:40.753Z,1020
2017-04-07T11:45:45.868Z,1020.1
2017-04-07T11:46:48.885Z,1020.1
2017-04-07T11:47:51.224Z,1020
2017-04-07T11:48:54.069Z,1020
2017-04-07T11:49:56.412Z,1020
2017-04-07T11:50:59.256Z,1020
2017-04-07T11:52:01.847Z,1020
2017-04-07T11:53:04.185Z,1019.9
2017-04-07T11:54:07.034Z,1019.9
2017-04-07T11:55:09.875Z,1019.9
2017-04-07T11:56:12.228Z,1020
2017-04-07T11:57:15.375Z,1019.9
2017-04-07T11:58:17.718Z,1019.9
2017-04-07T11:59:20.062Z,1020
2017-04-07T12:00:22.904Z,1020
2017-04-07T12:01:25.788Z,1020.1
2017-04-07T12:02:28.434Z,1020.1
2017-04-07T12:03:30.778Z,1020.1
2017-04-07T12:04:33.622Z,1020
2017-04-07T12:05:35.966Z,1020
2017-04-07T12:06:38.729Z,1020
2017-04-07T12:07:41.747Z,1020
2017-04-07T12:08:44.090Z,1020
2017-04-07T12:09:46.805Z,1020
2017-04-07T12:10:49.149Z,1019.9
2017-04-07T12:11:51.992Z,1019.9
2017-04-07T12:12:55.145Z,1019.9
2017-04-07T12:13:57.490Z,1020
2017-04-07T12:14:59.701Z,1019.9
2017-04-07T12:16:02.557Z,1020
2017-04-07T12:17:05.410Z,1019.9
2017-04-07T12:18:08.058Z,1019.9
2017-04-07T12:19:10.405Z,1019.9
2017-04-07T12:20:13.252Z,1019.9
2017-04-07T12:21:15.835Z,1019.9
2017-04-07T12:22:18.183Z,1019.8
2017-04-07T12:23:21.396Z,1019.8
2017-04-07T12:24:23.787Z,1019.8
2017-04-07T12:25:26.137Z,1019.8
2017-04-07T12:27:31.392Z,1019.8
2017-04-07T12:28:34.492Z,1019.9
2017-04-07T12:29:36.839Z,1019.9
2017-04-07T12:30:39.685Z,1019.9
2017-04-07T12:31:42.035Z,1019.8
2017-04-07T12:32:44.890Z,1019.8
2017-04-07T12:33:47.961Z,1019.9
2017-04-07T12:34:50.307Z,1019.8
2017-04-07T12:35:52.705Z,1019.9
2017-04-07T12:36:55.587Z,1019.8
2017-04-07T12:37:57.929Z,1019.8
2017-04-07T12:39:00.967Z,1019.9
2017-04-07T12:40:03.315Z,1019.8
2017-04-07T12:41:06.029Z,1020
2017-04-07T12:43:11.281Z,1019.9
2017-04-07T12:44:14.435Z,1019.9
2017-04-07T12:45:16.774Z,1019.9
2017-04-07T12:46:19.118Z,1019.9
2017-04-07T12:47:21.706Z,1020
2017-04-07T12:48:24.474Z,1019.9
2017-04-07T12:49:27.626Z,1019.9
2017-04-07T12:50:29.972Z,1019.9
2017-04-07T12:51:32.314Z,1019.9
2017-04-07T12:52:35.084Z,1019.9
2017-04-07T12:53:37.801Z,1019.8
2017-04-07T12:54:40.899Z,1019.9
2017-04-07T12:55:43.244Z,1019.9
2017-04-07T12:56:45.964Z,1019.9
2017-04-07T12:57:48.307Z,1019.9
2017-04-07T12:58:51.156Z,1019.9
2017-04-07T12:59:53.750Z,1019.9
2017-04-07T13:00:56.596Z,1019.9
2017-04-07T13:01:58.944Z,1019.8
2017-04-07T13:03:01.792Z,1019.9
2017-04-07T13:04:04.141Z,1019.8
2017-04-07T13:05:07.116Z,1019.9
2017-04-07T13:06:09.472Z,1019.8
2017-04-07T13:07:12.417Z,1019.9
2017-04-07T13:08:14.761Z,1019.8
2017-04-07T13:09:17.666Z,1019.8
2017-04-07T13:10:20.269Z,1019.8
2017-04-07T13:11:22.982Z,1019.8
2017-04-07T13:12:25.325Z,1019.8
2017-04-07T13:13:28.035Z,1019.7
2017-04-07T13:14:30.882Z,1019.7
2017-04-07T13:15:33.485Z,1019.8
2017-04-07T13:16:35.829Z,1019.7
2017-04-07T13:17:38.545Z,1019.7
2017-04-07T13:18:41.447Z,1019.7
2017-04-07T13:19:44.159Z,1019.7
2017-04-07T13:20:46.756Z,1019.7
2017-04-07T13:21:49.157Z,1019.7
2017-04-07T13:22:52.001Z,1019.7
2017-04-07T13:23:54.847Z,1019.7
2017-04-07T13:24:57.190Z,1019.7
2017-04-07T13:26:00.163Z,1019.6
2017-04-07T13:27:02.426Z,1019.6
2017-04-07T13:28:05.293Z,1019.7
2017-04-07T13:29:07.608Z,1019.7
2017-04-07T13:30:10.331Z,1019.7
2017-04-07T13:31:13.483Z,1019.7
2017-04-07T13:33:18.233Z,1019.6
2017-04-07T13:34:21.081Z,1019.6
2017-04-07T13:35:23.931Z,1019.6
2017-04-07T13:36:26.578Z,1019.7
2017-04-07T13:37:28.923Z,1019.6
2017-04-07T13:38:31.776Z,1019.6
2017-04-07T13:39:34.135Z,1019.6
2017-04-07T13:41:40.190Z,1019.5
2017-04-07T13:42:42.536Z,1019.5
2017-04-07T13:43:44.879Z,1019.5
2017-04-07T13:44:47.727Z,1019.5
2017-04-07T13:45:50.503Z,1019.5
2017-04-07T13:46:53.016Z,1019.5
2017-04-07T13:47:55.367Z,1019.5
2017-04-07T13:48:58.212Z,1019.4
2017-04-07T13:50:00.789Z,1019.5
2017-04-07T13:51:03.637Z,1019.4
2017-04-07T13:52:06.285Z,1019.4
2017-04-07T13:53:08.632Z,1019.4
2017-04-07T13:54:11.479Z,1019.4
2017-04-07T13:55:14.331Z,1019.4
2017-04-07T13:56:16.675Z,1019.4
2017-04-07T13:57:19.503Z,1019.3
2017-04-07T13:58:22.214Z,1019.3
2017-04-07T13:59:24.926Z,1019.4
2017-04-07T14:00:27.269Z,1019.4
2017-04-07T14:01:30.112Z,1019.3
2017-04-07T14:02:33.075Z,1019.4
2017-04-07T14:03:35.428Z,1019.3
2017-04-07T14:04:38.144Z,1019.3
2017-04-07T14:05:40.487Z,1019.3
2017-04-07T14:06:43.388Z,1019.3
2017-04-07T14:07:46.039Z,1019.4
2017-04-07T14:08:48.757Z,1019.4
2017-04-07T14:09:51.102Z,1019.4
2017-04-07T14:10:53.953Z,1019.4